Time;durP1;ratioP1;P1;durP2;ratioP2;P2;SDS_P1;SDS_P2;PMS_P1;PMS_P2;Temp;Humidity;BMP_temperature;BMP_pressure;BME280_temperature;BME280_humidity;BME280_pressure;Samples;Min_cycle;Max_cycle;Signal;HPM_P1;HPM_P2
2023/02/10 00:01:21;;;;;;;37.83;21.20;;;1.80;56.20;;;;;;5035056;28;20033;-72
2023/02/10 00:03:48;;;;;;;38.77;21.80;;;1.70;56.20;;;;;;5034715;28;20022;-73
2023/02/10 00:06:15;;;;;;;38.70;20.53;;;1.70;56.30;;;;;;5034483;28;20095;-73
2023/02/10 00:08:41;;;;;;;34.73;20.63;;;1.60;56.30;;;;;;5034548;28;20067;-73
2023/02/10 00:11:09;;;;;;;36.27;20.57;;;1.60;56.30;;;;;;5034577;28;20072;-73
2023/02/10 00:13:37;;;;;;;41.30;21.00;;;1.60;56.90;;;;;;5034601;28;20025;-73
2023/02/10 00:16:05;;;;;;;36.40;20.47;;;1.50;56.40;;;;;;5034764;28;20044;-73
2023/02/10 00:18:31;;;;;;;36.67;21.77;;;1.50;56.60;;;;;;5034444;28;20117;-73
2023/02/10 00:21:04;;;;;;;37.33;21.20;;;1.50;56.70;;;;;;5034266;28;20100;-74
2023/02/10 00:23:30;;;;;;;37.13;20.90;;;1.50;56.60;;;;;;5033833;28;20087;-73
2023/02/10 00:25:55;;;;;;;34.47;21.07;;;1.50;56.60;;;;;;5033841;28;20041;-73
2023/02/10 00:28:21;;;;;;;39.00;22.03;;;1.50;56.70;;;;;;5034282;28;20038;-73
2023/02/10 00:30:47;;;;;;;34.87;20.07;;;1.40;56.70;;;;;;5034571;28;20083;-74
2023/02/10 00:33:12;;;;;;;36.57;20.60;;;1.40;56.90;;;;;;5034311;28;20116;-74
2023/02/10 00:35:38;;;;;;;37.13;20.93;;;1.40;57.00;;;;;;5034237;28;20033;-74
2023/02/10 00:38:04;;;;;;;34.83;21.13;;;1.30;57.20;;;;;;5033961;28;20037;-74
2023/02/10 00:40:30;;;;;;;39.30;21.23;;;1.30;57.30;;;;;;5033608;28;20048;-74
2023/02/10 00:42:55;;;;;;;38.20;22.40;;;1.30;57.30;;;;;;5033945;28;20037;-74
2023/02/10 00:45:21;;;;;;;42.00;22.33;;;1.30;57.40;;;;;;5034031;28;20096;-74
2023/02/10 00:47:49;;;;;;;41.60;23.83;;;1.30;57.50;;;;;;5033006;28;20059;-74
2023/02/10 00:50:14;;;;;;;39.33;23.03;;;1.30;57.70;;;;;;5034134;28;20038;-74
2023/02/10 00:52:40;;;;;;;44.93;23.77;;;1.30;58.10;;;;;;5033893;28;20092;-73
2023/02/10 00:55:06;;;;;;;42.43;24.17;;;1.30;57.90;;;;;;5033750;28;20044;-73
2023/02/10 00:57:32;;;;;;;41.73;24.53;;;1.20;58.10;;;;;;5033768;28;20041;-74
2023/02/10 00:59:57;;;;;;;44.17;24.90;;;1.20;58.40;;;;;;5033782;28;20126;-73
2023/02/10 01:02:23;;;;;;;40.10;23.43;;;1.20;58.30;;;;;;5032497;28;20140;-75
2023/02/10 01:04:49;;;;;;;43.90;24.50;;;1.20;58.20;;;;;;5033719;28;20037;-74
2023/02/10 01:07:15;;;;;;;45.03;24.57;;;1.20;58.30;;;;;;5033181;28;20052;-74
2023/02/10 01:09:42;;;;;;;40.47;24.10;;;1.10;58.40;;;;;;5033766;28;20080;-74
2023/02/10 01:12:08;;;;;;;46.93;25.00;;;1.10;58.40;;;;;;5033192;28;20075;-74
2023/02/10 01:14:34;;;;;;;45.20;23.80;;;1.10;58.50;;;;;;5033658;28;20038;-74
2023/02/10 01:17:00;;;;;;;41.03;22.70;;;1.00;58.40;;;;;;5033191;28;20025;-74
2023/02/10 01:19:25;;;;;;;43.43;25.17;;;1.10;58.50;;;;;;5033236;28;20072;-75
2023/02/10 01:21:51;;;;;;;40.13;24.03;;;1.10;58.60;;;;;;5033196;28;20112;-74
2023/02/10 01:24:17;;;;;;;40.30;21.67;;;1.00;58.40;;;;;;5033103;28;20041;-74
2023/02/10 01:26:42;;;;;;;39.20;21.67;;;1.00;58.30;;;;;;5033385;28;20030;-74
2023/02/10 01:29:08;;;;;;;43.97;22.30;;;1.00;58.30;;;;;;5033284;28;20037;-74
2023/02/10 01:31:34;;;;;;;35.60;21.67;;;1.00;58.20;;;;;;5033074;28;20076;-74
2023/02/10 01:34:01;;;;;;;34.10;20.67;;;1.00;58.20;;;;;;5033097;28;20056;-74
2023/02/10 01:36:27;;;;;;;35.57;20.77;;;1.00;58.30;;;;;;5032890;28;20100;-74
2023/02/10 01:38:52;;;;;;;35.83;21.63;;;0.90;58.30;;;;;;5033321;28;20141;-72
2023/02/10 01:41:21;;;;;;;40.30;22.10;;;0.90;58.30;;;;;;5032762;28;20480;-73
2023/02/10 01:44:04;;;;;;;42.17;22.10;;;0.90;58.40;;;;;;5032838;28;20057;-74
2023/02/10 01:46:33;;;;;;;42.08;21.10;;;0.80;58.50;;;;;;5032891;28;20029;-73
2023/02/10 01:49:03;;;;;;;40.77;22.70;;;0.80;58.80;;;;;;5032904;28;20087;-73
2023/02/10 01:51:37;;;;;;;41.93;24.60;;;0.80;58.80;;;;;;5032913;28;20037;-73
2023/02/10 01:54:05;;;;;;;42.60;25.03;;;0.80;59.20;;;;;;5032712;28;20040;-73
2023/02/10 01:56:31;;;;;;;43.50;23.67;;;0.70;59.30;;;;;;5032488;28;20071;-73
2023/02/10 01:58:57;;;;;;;40.37;24.03;;;0.80;59.40;;;;;;5029968;28;20049;-73
2023/02/10 02:01:23;;;;;;;44.13;23.83;;;0.70;59.40;;;;;;5029895;28;20037;-74
2023/02/10 02:03:49;;;;;;;38.23;22.77;;;0.80;59.80;;;;;;5030274;28;20038;-73
2023/02/10 02:06:15;;;;;;;39.57;22.73;;;0.70;59.40;;;;;;5031870;28;20057;-73
2023/02/10 02:08:41;;;;;;;40.33;22.17;;;0.70;59.20;;;;;;5032573;28;20042;-73
2023/02/10 02:11:26;;;;;;;35.70;20.83;;;0.70;59.80;;;;;;5032598;28;20095;-74
2023/02/10 02:14:15;;;;;;;31.97;19.13;;;0.70;59.90;;;;;;5032292;28;20037;-73
2023/02/10 02:16:52;;;;;;;35.10;20.87;;;0.70;59.60;;;;;;5032568;28;20029;-73
2023/02/10 02:19:33;;;;;;;38.27;21.73;;;0.60;59.60;;;;;;5032300;28;20117;-73
2023/02/10 02:22:01;;;;;;;33.93;20.57;;;0.60;59.80;;;;;;5032261;28;20041;-73
2023/02/10 02:24:33;;;;;;;39.23;21.13;;;0.60;59.70;;;;;;5032153;28;20038;-74
2023/02/10 02:27:05;;;;;;;38.37;20.90;;;0.50;59.80;;;;;;5032413;28;20037;-74
2023/02/10 02:30:01;;;;;;;32.08;20.02;;;0.60;60.10;;;;;;5032021;28;20037;-75
2023/02/10 02:32:42;;;;;;;32.87;19.53;;;0.50;60.10;;;;;;5032846;28;20092;-74
2023/02/10 02:35:19;;;;;;;35.50;20.03;;;0.50;60.00;;;;;;5032344;28;20037;-75
2023/02/10 02:37:46;;;;;;;34.77;20.30;;;0.50;60.10;;;;;;5032175;28;20041;-74
2023/02/10 02:40:14;;;;;;;36.83;20.50;;;0.50;60.10;;;;;;5032336;28;20053;-74
2023/02/10 02:42:40;;;;;;;34.03;20.30;;;0.40;60.20;;;;;;5032183;28;20108;-73
2023/02/10 02:45:13;;;;;;;34.63;20.23;;;0.40;60.30;;;;;;5032124;28;20117;-73
2023/02/10 02:48:13;;;;;;;35.03;20.43;;;0.40;60.50;;;;;;5031415;28;20511;-74
2023/02/10 02:50:45;;;;;;;35.20;20.93;;;0.30;60.40;;;;;;5032347;28;20511;-74
2023/02/10 02:54:04;;;;;;;38.00;21.00;;;0.40;60.50;;;;;;5032345;28;20498;-73
2023/02/10 02:56:32;;;;;;;33.90;20.93;;;0.30;60.40;;;;;;5009466;28;20117;-73
2023/02/10 02:59:13;;;;;;;39.53;22.03;;;0.30;61.10;;;;;;5009790;28;20050;-73
2023/02/10 03:01:46;;;;;;;36.60;20.83;;;0.30;60.70;;;;;;5025046;28;20483;-73
2023/02/10 03:04:15;;;;;;;37.30;20.27;;;0.30;60.70;;;;;;5032108;28;20030;-73
2023/02/10 03:06:40;;;;;;;35.40;20.23;;;0.30;60.80;;;;;;5031883;28;20053;-74
2023/02/10 03:09:06;;;;;;;38.87;20.23;;;0.20;60.40;;;;;;5032215;28;20037;-73
2023/02/10 03:11:32;;;;;;;35.23;20.37;;;0.20;60.30;;;;;;5034917;28;20051;-74
2023/02/10 03:13:57;;;;;;;39.83;22.03;;;0.20;60.60;;;;;;5034609;28;20052;-73
2023/02/10 03:16:23;;;;;;;39.10;21.50;;;0.20;60.70;;;;;;5035568;28;20056;-73
2023/02/10 03:18:49;;;;;;;35.53;20.40;;;0.20;61.00;;;;;;5035823;28;20045;-73
2023/02/10 03:21:15;;;;;;;33.23;19.53;;;0.20;61.50;;;;;;5035732;28;20112;-73
2023/02/10 03:23:40;;;;;;;35.00;19.53;;;0.20;61.50;;;;;;5035470;28;20033;-73
2023/02/10 03:26:06;;;;;;;34.87;21.23;;;0.20;61.20;;;;;;5035134;28;20026;-73
2023/02/10 03:28:32;;;;;;;37.23;19.57;;;0.10;61.20;;;;;;5035258;28;20056;-73
2023/02/10 03:31:00;;;;;;;35.43;20.57;;;0.10;61.30;;;;;;5035418;28;20029;-73
2023/02/10 03:33:26;;;;;;;37.57;20.20;;;0.10;61.70;;;;;;5035402;28;20038;-73
2023/02/10 03:35:52;;;;;;;37.47;20.70;;;0.10;61.60;;;;;;5033825;28;20033;-74
2023/02/10 03:38:18;;;;;;;36.60;21.40;;;0.00;61.00;;;;;;5035063;28;20033;-74
2023/02/10 03:40:43;;;;;;;38.07;20.47;;;0.00;61.00;;;;;;5035163;28;20392;-73
2023/02/10 03:43:09;;;;;;;35.03;19.43;;;0.00;60.80;;;;;;5033933;28;20135;-73
2023/02/10 03:45:37;;;;;;;34.10;20.57;;;-0.10;61.00;;;;;;5035135;28;20042;-72
2023/02/10 03:48:03;;;;;;;33.73;18.40;;;-0.20;61.00;;;;;;5035290;28;20091;-74
2023/02/10 03:50:29;;;;;;;32.33;17.73;;;-0.20;61.10;;;;;;5035106;28;20038;-73
2023/02/10 03:52:54;;;;;;;35.67;18.63;;;-0.20;61.20;;;;;;5035121;28;20037;-74
2023/02/10 03:55:20;;;;;;;35.30;19.63;;;-0.20;61.00;;;;;;5035043;28;20064;-74
2023/02/10 03:57:46;;;;;;;34.00;18.73;;;-0.20;61.00;;;;;;5034848;28;20026;-74
2023/02/10 04:00:13;;;;;;;32.53;18.70;;;-0.20;60.90;;;;;;5034915;28;20041;-73
2023/02/10 04:02:39;;;;;;;31.30;18.07;;;-0.20;61.20;;;;;;5034903;28;20113;-73
2023/02/10 04:05:05;;;;;;;36.93;19.53;;;-0.20;61.60;;;;;;5035050;28;20045;-73
2023/02/10 04:07:31;;;;;;;33.13;18.27;;;-0.20;61.70;;;;;;5034464;28;20550;-73
2023/02/10 04:09:57;;;;;;;32.83;19.03;;;-0.20;61.50;;;;;;5034415;28;20053;-74
2023/02/10 04:12:23;;;;;;;31.70;17.17;;;-0.30;61.30;;;;;;5034654;28;20029;-73
2023/02/10 04:14:48;;;;;;;33.13;18.60;;;-0.30;61.40;;;;;;5034821;28;20037;-74
2023/02/10 04:17:14;;;;;;;30.37;17.27;;;-0.30;61.10;;;;;;5034787;28;20037;-74
2023/02/10 04:19:40;;;;;;;31.67;17.67;;;-0.30;61.20;;;;;;5034459;28;20049;-73
2023/02/10 04:22:06;;;;;;;32.07;18.63;;;-0.40;61.50;;;;;;5033953;28;20065;-74
2023/02/10 04:24:31;;;;;;;33.87;17.07;;;-0.30;61.40;;;;;;5034469;28;20049;-73
2023/02/10 04:26:57;;;;;;;30.30;17.67;;;-0.40;61.40;;;;;;5034409;28;20055;-73
2023/02/10 04:29:23;;;;;;;33.40;18.60;;;-0.40;61.40;;;;;;5034342;28;20037;-74
2023/02/10 04:31:49;;;;;;;33.60;18.00;;;-0.40;61.60;;;;;;5034394;28;20091;-74
2023/02/10 04:34:14;;;;;;;31.27;17.90;;;-0.40;61.60;;;;;;5033313;28;20037;-73
2023/02/10 04:36:40;;;;;;;36.83;19.00;;;-0.40;61.70;;;;;;5034308;28;20127;-73
2023/02/10 04:39:06;;;;;;;32.03;17.63;;;-0.40;61.70;;;;;;5034161;28;20095;-74
2023/02/10 04:41:32;;;;;;;37.37;19.50;;;-0.40;61.80;;;;;;5034134;28;20037;-73
2023/02/10 04:43:57;;;;;;;35.70;19.13;;;-0.40;61.80;;;;;;5034243;28;20041;-74
2023/02/10 04:46:23;;;;;;;34.03;19.67;;;-0.50;61.90;;;;;;5033961;28;20036;-73
2023/02/10 04:48:49;;;;;;;35.97;18.57;;;-0.50;62.20;;;;;;5033748;28;20034;-74
2023/02/10 04:51:15;;;;;;;36.33;18.67;;;-0.50;62.00;;;;;;5033912;28;20120;-73
2023/02/10 04:53:43;;;;;;;33.10;19.17;;;-0.50;62.10;;;;;;5033970;28;20068;-73
2023/02/10 04:56:09;;;;;;;34.37;18.53;;;-0.50;62.20;;;;;;5033794;28;20043;-73
2023/02/10 04:58:35;;;;;;;38.27;18.93;;;-0.50;62.10;;;;;;5033609;28;20077;-73
2023/02/10 05:01:01;;;;;;;36.30;20.07;;;-0.50;62.30;;;;;;5033659;28;20038;-74
2023/02/10 05:03:26;;;;;;;43.87;19.53;;;-0.50;61.70;;;;;;5033829;28;20037;-73
2023/02/10 05:05:52;;;;;;;36.93;19.33;;;-0.60;61.60;;;;;;5033576;28;20052;-73
2023/02/10 05:08:23;;;;;;;46.90;20.97;;;-0.60;62.20;;;;;;5033722;28;20063;-74
2023/02/10 05:10:53;;;;;;;34.93;19.70;;;-0.60;62.40;;;;;;5033149;28;20076;-74
2023/02/10 05:13:19;;;;;;;39.80;19.03;;;-0.60;62.30;;;;;;5033454;28;20090;-73
2023/02/10 05:15:46;;;;;;;38.33;19.83;;;-0.60;62.20;;;;;;5033255;28;20026;-73
2023/02/10 05:18:11;;;;;;;38.17;20.10;;;-0.60;62.30;;;;;;5033223;28;20037;-73
2023/02/10 05:20:37;;;;;;;34.10;18.33;;;-0.70;62.20;;;;;;5033103;28;20403;-73
2023/02/10 05:23:03;;;;;;;35.70;18.63;;;-0.70;62.70;;;;;;5033099;28;20029;-74
2023/02/10 05:25:28;;;;;;;41.53;20.23;;;-0.70;62.60;;;;;;5033394;28;20042;-74
2023/02/10 05:27:54;;;;;;;37.73;19.10;;;-0.80;62.20;;;;;;5033428;28;20029;-74
2023/02/10 05:30:20;;;;;;;39.53;19.23;;;-0.80;63.00;;;;;;5031969;28;20136;-73
2023/02/10 05:32:46;;;;;;;40.10;20.80;;;-0.80;63.20;;;;;;5032756;28;20037;-74
2023/02/10 05:35:12;;;;;;;38.10;19.13;;;-0.80;62.70;;;;;;5033113;28;20117;-73
2023/02/10 05:37:37;;;;;;;35.13;19.20;;;-0.90;63.00;;;;;;5033093;28;20033;-72
2023/02/10 05:40:03;;;;;;;36.40;19.20;;;-0.90;62.90;;;;;;5032789;28;20053;-74
2023/02/10 05:42:29;;;;;;;40.10;20.07;;;-0.90;63.00;;;;;;5032757;28;20113;-73
2023/02/10 05:44:55;;;;;;;36.50;18.93;;;-1.00;63.10;;;;;;5032631;28;20065;-73
2023/02/10 05:47:21;;;;;;;40.00;18.27;;;-0.90;62.80;;;;;;5032528;28;20039;-73
2023/02/10 05:49:46;;;;;;;37.50;18.83;;;-1.00;62.90;;;;;;5032950;28;20103;-72
2023/02/10 05:52:12;;;;;;;41.63;19.47;;;-1.00;63.00;;;;;;5032705;28;20103;-72
2023/02/10 05:54:39;;;;;;;35.83;17.97;;;-1.00;63.00;;;;;;5032872;28;20084;-73
2023/02/10 05:57:06;;;;;;;39.50;19.07;;;-1.00;63.00;;;;;;5032665;28;20029;-72
2023/02/10 05:59:32;;;;;;;32.13;17.63;;;-1.00;63.20;;;;;;5032427;28;20056;-73
2023/02/10 06:01:57;;;;;;;39.47;19.00;;;-1.00;63.10;;;;;;5032827;28;20041;-73
2023/02/10 06:04:24;;;;;;;31.77;17.57;;;-1.00;62.90;;;;;;5032600;28;20045;-73
2023/02/10 06:06:50;;;;;;;31.87;17.90;;;-1.00;63.00;;;;;;5032485;28;20049;-74
2023/02/10 06:09:15;;;;;;;33.53;17.57;;;-1.00;63.20;;;;;;5032511;28;20036;-73
2023/02/10 06:11:41;;;;;;;44.23;17.43;;;-1.10;63.50;;;;;;5032337;28;20030;-73
2023/02/10 06:14:07;;;;;;;30.97;16.37;;;-1.10;63.40;;;;;;5032483;28;20033;-73
2023/02/10 06:16:33;;;;;;;29.40;16.53;;;-1.00;63.40;;;;;;5032582;28;20506;-73
2023/02/10 06:18:59;;;;;;;25.87;15.13;;;-1.00;63.70;;;;;;5032480;28;20038;-72
2023/02/10 06:21:25;;;;;;;37.07;16.27;;;-1.00;63.60;;;;;;5031538;28;20107;-73
2023/02/10 06:23:51;;;;;;;34.67;16.43;;;-1.00;63.70;;;;;;5032035;28;20369;-73
2023/02/10 06:26:17;;;;;;;31.90;16.67;;;-1.00;63.70;;;;;;5032183;28;20260;-73
2023/02/10 06:28:43;;;;;;;28.20;15.20;;;-1.00;63.90;;;;;;5032086;28;20071;-72
2023/02/10 06:31:09;;;;;;;28.90;15.50;;;-1.00;63.90;;;;;;5032613;28;20109;-74
2023/02/10 06:33:35;;;;;;;24.80;14.83;;;-1.10;64.00;;;;;;5032351;28;20030;-73
2023/02/10 06:36:05;;;;;;;28.50;15.67;;;-1.00;64.30;;;;;;5032602;28;20029;-74
2023/02/10 06:38:35;;;;;;;27.50;15.53;;;-1.00;64.00;;;;;;5032898;28;20396;-74
2023/02/10 06:41:01;;;;;;;31.17;15.17;;;-1.00;64.20;;;;;;5032483;28;20038;-73
2023/02/10 06:43:27;;;;;;;48.10;17.67;;;-1.00;64.50;;;;;;5031583;28;20120;-74
2023/02/10 06:45:53;;;;;;;55.60;18.73;;;-1.00;64.60;;;;;;5033955;28;20296;-73
2023/02/10 06:48:19;;;;;;;37.43;16.60;;;-0.90;64.30;;;;;;5036354;28;20037;-73
2023/02/10 06:50:44;;;;;;;27.77;15.10;;;-0.90;64.20;;;;;;5035792;28;20032;-73
2023/02/10 06:53:10;;;;;;;30.40;15.57;;;-0.90;64.10;;;;;;5035718;28;20096;-74
2023/02/10 06:55:36;;;;;;;30.30;16.57;;;-0.90;64.40;;;;;;5035583;28;20117;-73
2023/02/10 06:58:02;;;;;;;40.30;17.30;;;-0.90;64.80;;;;;;5036138;28;20487;-74
2023/02/10 07:00:29;;;;;;;33.47;16.47;;;-0.80;64.20;;;;;;5035860;28;20037;-73
2023/02/10 07:16:28;;;;;;;49.67;20.65;;;-0.80;63.70;;;;;;6308788;22;1318792;-64
2023/02/10 07:18:53;;;;;;;53.13;20.37;;;-0.50;65.10;;;;;;6314995;22;20467;-62
2023/02/10 07:21:19;;;;;;;48.70;20.53;;;-0.40;64.70;;;;;;6314995;22;19999;-64
2023/02/10 07:23:45;;;;;;;36.97;19.67;;;-0.40;64.40;;;;;;6314652;22;20006;-63
2023/02/10 07:26:11;;;;;;;48.87;21.00;;;-0.30;63.80;;;;;;6314937;22;19999;-65
2023/02/10 07:28:37;;;;;;;50.83;21.47;;;-0.20;63.50;;;;;;6314953;22;20003;-64
2023/02/10 07:31:03;;;;;;;52.50;22.90;;;-0.20;63.60;;;;;;6314710;22;20433;-62
2023/02/10 07:33:29;;;;;;;52.13;23.23;;;-0.20;63.40;;;;;;6314989;22;20002;-63
2023/02/10 07:35:57;;;;;;;46.60;21.00;;;-0.20;63.50;;;;;;6314956;22;19999;-64
2023/02/10 07:38:23;;;;;;;44.73;21.27;;;-0.20;63.60;;;;;;6314700;22;20090;-66
2023/02/10 07:40:49;;;;;;;45.67;22.23;;;-0.10;63.70;;;;;;6313631;22;20027;-66
2023/02/10 07:43:14;;;;;;;44.67;22.57;;;-0.10;63.80;;;;;;6315258;22;20056;-63
2023/02/10 07:45:40;;;;;;;59.70;23.67;;;-0.10;64.00;;;;;;6314778;22;20007;-65
2023/02/10 07:48:06;;;;;;;58.70;23.63;;;0.00;63.90;;;;;;6313223;22;20030;-65
2023/02/10 07:50:31;;;;;;;50.87;22.97;;;0.10;64.00;;;;;;6315365;22;20337;-65
2023/02/10 07:52:57;;;;;;;43.17;22.27;;;0.10;63.70;;;;;;6315083;22;20003;-64
2023/02/10 07:55:23;;;;;;;40.93;22.80;;;0.10;63.80;;;;;;6286995;22;20003;-65
2023/02/10 07:57:48;;;;;;;44.77;23.60;;;0.20;63.60;;;;;;6314977;22;20082;-65
2023/02/10 08:00:14;;;;;;;48.27;22.93;;;0.20;63.60;;;;;;6314904;22;19995;-66
2023/02/10 08:02:40;;;;;;;39.03;21.97;;;0.30;63.70;;;;;;6268145;22;20003;-66
2023/02/10 08:05:06;;;;;;;42.03;20.77;;;0.40;63.40;;;;;;6253137;23;20051;-66
2023/02/10 08:07:32;;;;;;;39.87;20.70;;;0.50;63.20;;;;;;6253414;22;19996;-65
2023/02/10 08:09:58;;;;;;;45.33;20.97;;;0.50;63.10;;;;;;6253205;22;20011;-64
2023/02/10 08:12:23;;;;;;;34.47;19.63;;;0.60;62.70;;;;;;6253603;23;20000;-66
2023/02/10 08:14:49;;;;;;;50.23;21.27;;;0.70;62.40;;;;;;6253465;23;20000;-65
2023/02/10 08:17:15;;;;;;;41.93;21.63;;;0.80;62.40;;;;;;6246495;23;20016;-65
2023/02/10 08:19:40;;;;;;;38.37;20.07;;;0.80;62.40;;;;;;6246296;23;20012;-66
2023/02/10 08:22:06;;;;;;;42.60;20.20;;;0.90;62.30;;;;;;6246216;23;20075;-64
2023/02/10 08:24:32;;;;;;;44.20;20.30;;;0.90;62.30;;;;;;6246641;23;20142;-65
2023/02/10 08:26:57;;;;;;;37.03;19.13;;;1.00;62.10;;;;;;6244434;23;20126;-66
2023/02/10 08:29:23;;;;;;;32.07;19.03;;;1.00;62.00;;;;;;6243470;23;20008;-67
2023/02/10 08:31:50;;;;;;;40.37;18.83;;;1.10;61.80;;;;;;6243201;23;20032;-68
2023/02/10 08:34:17;;;;;;;40.97;19.47;;;1.20;61.90;;;;;;6246032;23;20099;-67
2023/02/10 08:36:44;;;;;;;40.27;20.87;;;1.20;61.70;;;;;;6247012;23;20000;-67
2023/02/10 08:39:10;;;;;;;33.00;19.47;;;1.30;61.50;;;;;;6246800;23;20005;-66
2023/02/10 08:41:36;;;;;;;39.97;19.53;;;1.40;61.40;;;;;;6246375;23;20054;-65
2023/02/10 08:44:02;;;;;;;35.00;18.60;;;1.40;61.20;;;;;;6245949;23;20013;-65
2023/02/10 08:46:27;;;;;;;35.73;20.07;;;1.50;61.40;;;;;;6246330;23;20039;-66
2023/02/10 08:48:53;;;;;;;33.80;20.10;;;1.50;61.20;;;;;;6246211;23;20004;-65
2023/02/10 08:51:20;;;;;;;33.93;20.60;;;1.60;60.90;;;;;;6246346;23;20006;-65
2023/02/10 08:53:46;;;;;;;37.20;20.47;;;1.70;60.70;;;;;;6246056;23;20032;-65
2023/02/10 08:56:15;;;;;;;37.27;20.63;;;1.80;60.70;;;;;;6246026;23;20335;-70
2023/02/10 08:58:41;;;;;;;34.77;20.90;;;1.90;60.90;;;;;;6245880;23;20004;-67
2023/02/10 09:01:16;;;;;;;40.37;20.13;;;2.00;60.90;;;;;;6246431;23;20068;-65
2023/02/10 09:03:42;;;;;;;38.60;20.07;;;2.00;60.60;;;;;;6246128;23;20153;-65
2023/02/10 09:06:15;;;;;;;35.57;19.07;;;2.10;60.60;;;;;;6246435;23;20079;-67
2023/02/10 09:08:42;;;;;;;36.93;19.93;;;2.20;60.40;;;;;;6244090;23;20438;-63
2023/02/10 09:11:09;;;;;;;29.40;18.00;;;2.30;60.10;;;;;;6243211;23;20000;-64
2023/02/10 09:13:35;;;;;;;25.83;15.10;;;2.40;59.80;;;;;;6244792;23;20430;-63
2023/02/10 09:16:00;;;;;;;25.20;14.73;;;2.40;59.20;;;;;;6246409;23;20000;-63
2023/02/10 09:18:26;;;;;;;19.83;11.47;;;2.50;58.20;;;;;;6246211;23;20019;-63
2023/02/10 09:20:51;;;;;;;20.63;12.00;;;2.60;57.70;;;;;;6246546;23;20075;-64
2023/02/10 09:23:17;;;;;;;18.87;11.53;;;2.70;56.60;;;;;;6246511;23;20019;-65
2023/02/10 09:25:43;;;;;;;23.70;12.47;;;2.70;55.50;;;;;;6246189;23;20403;-63
2023/02/10 09:28:09;;;;;;;21.60;12.70;;;2.80;54.90;;;;;;6245749;23;20007;-63
2023/02/10 09:30:35;;;;;;;21.57;12.63;;;2.90;54.50;;;;;;6246108;23;20319;-65
2023/02/10 09:33:00;;;;;;;19.73;12.90;;;3.00;54.40;;;;;;6243782;23;20000;-64
2023/02/10 09:35:26;;;;;;;19.10;11.70;;;3.10;54.30;;;;;;6242715;23;20442;-65
2023/02/10 09:37:52;;;;;;;22.13;11.60;;;3.20;53.90;;;;;;6244352;23;20079;-64
2023/02/10 09:40:27;;;;;;;21.23;12.17;;;3.30;53.90;;;;;;6219131;23;20000;-64
2023/02/10 09:43:23;;;;;;;19.53;11.07;;;3.40;53.80;;;;;;6246209;23;20087;-64
2023/02/10 09:46:00;;;;;;;19.47;11.20;;;3.50;53.90;;;;;;6245589;23;20015;-64
2023/02/10 09:48:59;;;;;;;20.83;11.03;;;3.60;53.60;;;;;;6245820;23;20422;-65
2023/02/10 09:52:03;;;;;;;15.90;10.90;;;3.70;53.20;;;;;;6246101;23;20038;-64
2023/02/10 09:54:31;;;;;;;19.13;10.82;;;3.80;52.80;;;;;;6199355;23;20040;-66
2023/02/10 09:57:04;;;;;;;22.13;11.83;;;3.90;52.20;;;;;;6245444;23;20005;-64
2023/02/10 09:59:32;;;;;;;18.53;11.33;;;4.00;52.10;;;;;;6245278;23;20000;-64
2023/02/10 10:02:05;;;;;;;17.07;11.07;;;4.10;51.20;;;;;;6245851;23;20067;-64
2023/02/10 10:04:31;;;;;;;19.17;11.57;;;4.20;51.00;;;;;;6245726;23;20008;-63
2023/02/10 10:07:23;;;;;;;17.30;11.67;;;4.20;50.80;;;;;;6245293;23;20000;-64
2023/02/10 10:10:22;;;;;;;21.02;11.80;;;4.40;50.50;;;;;;6232932;23;20050;-63
2023/02/10 10:12:48;;;;;;;19.27;10.83;;;4.40;50.40;;;;;;6246070;23;20007;-63
2023/02/10 10:15:18;;;;;;;15.93;9.97;;;4.50;50.00;;;;;;6245763;23;20075;-63
2023/02/10 10:17:44;;;;;;;21.37;9.97;;;4.60;49.70;;;;;;6245674;23;20340;-63
2023/02/10 10:20:21;;;;;;;18.63;9.77;;;4.70;49.20;;;;;;6245719;23;20004;-64
2023/02/10 10:23:12;;;;;;;15.30;9.97;;;4.70;48.90;;;;;;6245780;23;20007;-64
2023/02/10 10:26:16;;;;;;;15.67;9.67;;;4.80;48.40;;;;;;6245736;23;20032;-64
2023/02/10 10:28:53;;;;;;;18.10;10.50;;;4.90;47.70;;;;;;6215367;23;20004;-64
2023/02/10 10:31:32;;;;;;;15.97;9.60;;;5.00;47.40;;;;;;6242559;23;20004;-65
2023/02/10 10:34:07;;;;;;;16.97;11.03;;;5.20;47.40;;;;;;6245409;23;20050;-64
2023/02/10 10:36:35;;;;;;;12.23;9.00;;;5.30;46.90;;;;;;6245653;23;20000;-64
2023/02/10 10:39:12;;;;;;;15.47;10.10;;;5.30;46.70;;;;;;6245569;23;20007;-64
2023/02/10 10:41:39;;;;;;;14.60;9.03;;;5.40;46.10;;;;;;6245894;23;20030;-64
2023/02/10 10:44:05;;;;;;;15.20;8.87;;;5.50;46.00;;;;;;6245649;23;20008;-64
2023/02/10 10:46:49;;;;;;;14.73;9.10;;;5.60;46.00;;;;;;6245650;23;20331;-64
2023/02/10 10:49:16;;;;;;;18.27;8.83;;;5.70;45.80;;;;;;6245725;23;20007;-64
2023/02/10 10:51:42;;;;;;;15.37;9.17;;;5.80;45.50;;;;;;6245606;23;20001;-64
2023/02/10 10:54:18;;;;;;;14.37;8.57;;;5.80;44.60;;;;;;6245558;23;20058;-64
2023/02/10 10:56:49;;;;;;;15.23;8.80;;;5.90;44.60;;;;;;6245865;23;20008;-65
2023/02/10 10:59:21;;;;;;;19.70;9.37;;;6.00;44.30;;;;;;6245567;23;20000;-64
2023/02/10 11:01:49;;;;;;;14.67;8.73;;;6.00;44.40;;;;;;6245329;23;20008;-63
2023/02/10 11:04:18;;;;;;;15.47;8.53;;;6.10;44.20;;;;;;6245358;23;20037;-64
2023/02/10 11:06:51;;;;;;;13.10;8.37;;;6.20;43.90;;;;;;6245485;23;20377;-64
2023/02/10 11:09:22;;;;;;;13.30;7.47;;;6.30;43.00;;;;;;6245216;23;20007;-64
2023/02/10 11:11:49;;;;;;;14.03;8.17;;;6.40;43.00;;;;;;6245915;23;20012;-64
2023/02/10 11:14:18;;;;;;;16.33;7.50;;;6.50;44.10;;;;;;6245413;23;20007;-64
2023/02/10 11:16:48;;;;;;;15.00;8.03;;;6.60;43.50;;;;;;6245653;23;20015;-64
2023/02/10 11:19:20;;;;;;;14.93;8.13;;;6.70;43.70;;;;;;6245685;23;20075;-64
2023/02/10 11:21:46;;;;;;;15.60;7.82;;;6.80;43.50;;;;;;6245380;23;20054;-64
2023/02/10 11:24:23;;;;;;;10.93;7.10;;;6.90;43.30;;;;;;6245118;23;20091;-64
2023/02/10 11:27:12;;;;;;;13.17;7.23;;;7.00;42.80;;;;;;6245692;23;20451;-63
2023/02/10 11:29:50;;;;;;;16.50;7.57;;;7.10;42.70;;;;;;6245415;23;20486;-65
2023/02/10 11:32:35;;;;;;;13.80;7.77;;;7.20;42.40;;;;;;6245274;23;20004;-64
2023/02/10 11:35:06;;;;;;;10.83;7.27;;;7.30;42.30;;;;;;6245613;23;20039;-64
2023/02/10 11:37:38;;;;;;;12.87;7.70;;;7.40;42.30;;;;;;6244873;23;20011;-65
2023/02/10 11:40:26;;;;;;;11.90;7.43;;;7.40;42.40;;;;;;6245513;23;20007;-64
2023/02/10 11:42:54;;;;;;;13.00;7.90;;;7.60;41.70;;;;;;6244554;23;20054;-64
2023/02/10 11:45:26;;;;;;;13.93;8.47;;;7.60;41.20;;;;;;6245369;23;20019;-64
2023/02/10 11:48:17;;;;;;;12.48;6.60;;;7.70;41.40;;;;;;6245275;23;20031;-64
2023/02/10 11:50:43;;;;;;;12.63;7.10;;;7.80;41.70;;;;;;6245399;23;20011;-64
2023/02/10 11:53:24;;;;;;;13.10;7.57;;;7.90;41.50;;;;;;6246929;23;20004;-64
2023/02/10 11:58:58;;;;;;;15.37;6.97;;;8.00;41.40;;;;;;6247341;23;20000;-64
2023/02/10 11:59:26;;;;;;;9.87;5.10;;;8.10;40.80;;;;;;6247255;23;20038;-65
2023/02/10 12:02:03;;;;;;;8.30;5.17;;;8.20;39.80;;;;;;6247084;23;19996;-63
2023/02/10 12:04:57;;;;;;;8.47;5.87;;;8.30;39.40;;;;;;6247052;23;20331;-65
2023/02/10 12:08:09;;;;;;;12.00;6.00;;;8.40;39.20;;;;;;6240560;23;20018;-64
2023/02/10 12:10:47;;;;;;;8.80;5.40;;;8.50;38.70;;;;;;6247105;23;20334;-65
2023/02/10 12:13:22;;;;;;;7.43;5.03;;;8.60;38.40;;;;;;6245119;23;20122;-66
2023/02/10 12:15:54;;;;;;;11.13;6.10;;;8.70;38.60;;;;;;6243607;23;20034;-65
2023/02/10 12:18:52;;;;;;;12.07;6.70;;;8.70;38.30;;;;;;6244764;23;20062;-67
2023/02/10 12:21:30;;;;;;;11.53;5.57;;;8.70;37.80;;;;;;6230732;23;20446;-65
2023/02/10 12:24:27;;;;;;;8.77;5.87;;;8.70;38.00;;;;;;6246973;23;20434;-64
2023/02/10 12:27:34;;;;;;;12.67;5.90;;;8.70;37.60;;;;;;6141967;23;20134;-65
2023/02/10 12:30:24;;;;;;;8.80;6.10;;;8.80;38.30;;;;;;6180024;23;20011;-64
2023/02/10 12:33:01;;;;;;;10.27;6.20;;;8.90;38.60;;;;;;6247202;23;20046;-64
2023/02/10 12:35:47;;;;;;;9.30;6.37;;;9.00;38.90;;;;;;6246842;23;20027;-64
2023/02/10 12:38:31;;;;;;;11.90;6.90;;;9.10;38.50;;;;;;6244801;23;20007;-65
2023/02/10 12:41:17;;;;;;;11.47;6.63;;;9.10;38.20;;;;;;6243190;23;20004;-65
2023/02/10 12:43:48;;;;;;;9.43;6.07;;;9.20;38.30;;;;;;6243539;23;20066;-65
2023/02/10 12:46:32;;;;;;;11.57;6.93;;;9.20;38.40;;;;;;6218831;23;20011;-64
2023/02/10 12:49:18;;;;;;;11.77;5.97;;;9.30;38.50;;;;;;6245938;23;20003;-65
2023/02/10 12:51:44;;;;;;;9.00;5.30;;;9.40;37.80;;;;;;6246596;23;20434;-65
2023/02/10 12:54:16;;;;;;;9.60;6.23;;;9.50;37.60;;;;;;6246181;23;20011;-64
2023/02/10 12:56:45;;;;;;;11.23;5.75;;;9.50;37.60;;;;;;6246633;23;20000;-66
2023/02/10 12:59:34;;;;;;;11.03;6.60;;;9.60;37.60;;;;;;6246671;23;20010;-65
2023/02/10 13:02:05;;;;;;;11.60;6.50;;;9.60;37.20;;;;;;6246486;23;20007;-64
2023/02/10 13:04:42;;;;;;;14.23;6.67;;;9.60;36.80;;;;;;6245849;23;20020;-66